createdAt,value
2023-02-13T00:00:20.114Z,2.14
2023-02-13T00:01:20.768Z,2.15
2023-02-13T00:02:21.588Z,1.98
2023-02-13T00:03:22.937Z,2.1
2023-02-13T00:04:22.714Z,1.95
2023-02-13T00:05:23.163Z,2
2023-02-13T00:06:23.079Z,1.95
2023-02-13T00:07:24.564Z,1.97
2023-02-13T00:08:24.816Z,1.98
2023-02-13T00:09:25.756Z,1.93
2023-02-13T00:10:26.107Z,1.95
2023-02-13T00:11:27.055Z,1.95
2023-02-13T00:12:28.293Z,1.95
2023-02-13T00:13:28.240Z,1.95
2023-02-13T00:14:29.214Z,1.89
2023-02-13T00:15:29.326Z,1.88
2023-02-13T00:16:30.127Z,1.93
2023-02-13T00:17:31.335Z,1.92
2023-02-13T00:18:31.180Z,2
2023-02-13T00:19:32.103Z,1.93
2023-02-13T00:20:32.585Z,2.07
2023-02-13T00:21:32.776Z,2.05
2023-02-13T00:22:33.700Z,2.01
2023-02-13T00:23:34.392Z,2.05
2023-02-13T00:24:34.293Z,2.08
2023-02-13T00:25:35.373Z,2.15
2023-02-13T00:26:36.060Z,2.04
2023-02-13T00:27:36.364Z,2.08
2023-02-13T00:28:36.837Z,2.1
2023-02-13T00:29:37.204Z,2.07
2023-02-13T00:30:37.686Z,2.15
2023-02-13T00:31:38.291Z,2.1
2023-02-13T00:32:38.109Z,2.01
2023-02-13T00:33:38.592Z,2.05
2023-02-13T00:34:38.949Z,2.05
2023-02-13T00:35:39.230Z,2.1
2023-02-13T00:36:40.437Z,2.14
2023-02-13T00:37:40.362Z,2.15
2023-02-13T00:38:41.021Z,2.12
2023-02-13T00:39:41.363Z,2.15
2023-02-13T00:40:42.580Z,2.07
2023-02-13T00:41:42.792Z,2.08
2023-02-13T00:42:43.478Z,2.05
2023-02-13T00:43:43.729Z,2.12
2023-02-13T00:44:44.251Z,1.97
2023-02-13T00:45:44.878Z,2.14
2023-02-13T00:46:44.861Z,2.1
2023-02-13T00:47:45.569Z,2.15
2023-02-13T00:48:46.512Z,2.15
2023-02-13T00:49:47.164Z,2.08
2023-02-13T00:50:47.361Z,2.16
2023-02-13T00:51:47.720Z,2.08
2023-02-13T00:52:48.356Z,2.12
2023-02-13T00:53:48.994Z,2.05
2023-02-13T00:54:49.500Z,2.01
2023-02-13T00:55:50.265Z,2.15
2023-02-13T00:56:50.782Z,2.15
2023-02-13T00:57:50.751Z,2.08
2023-02-13T00:58:52.074Z,2.16
2023-02-13T00:59:52.412Z,2.19
2023-02-13T01:00:52.684Z,2.15
2023-02-13T01:01:53.585Z,2.18
2023-02-13T01:02:54.046Z,2.15
2023-02-13T01:03:55.218Z,2.04
2023-02-13T01:04:55.012Z,2.03
2023-02-13T01:05:55.826Z,2
2023-02-13T01:06:56.472Z,1.97
2023-02-13T01:07:57.706Z,2.04
2023-02-13T01:08:58.203Z,2.04
2023-02-13T01:09:58.121Z,2.07
2023-02-13T01:10:59.290Z,2.07
2023-02-13T01:11:58.983Z,2.05
2023-02-13T01:12:58.968Z,2.1
2023-02-13T01:13:59.538Z,2.15
2023-02-13T01:14:59.776Z,2.16
2023-02-13T01:16:00.842Z,2.15
2023-02-13T01:17:01.657Z,2.14
2023-02-13T01:18:01.684Z,2.12
2023-02-13T01:19:01.921Z,2.22
2023-02-13T01:20:02.574Z,2.23
2023-02-13T01:21:04.034Z,2.21
2023-02-13T01:22:04.251Z,2.18
2023-02-13T01:23:05.094Z,2.22
2023-02-13T01:24:05.725Z,2.26
2023-02-13T01:25:06.647Z,2.28
2023-02-13T01:26:08.286Z,2.34
2023-02-13T01:27:08.250Z,2.22
2023-02-13T01:28:09.677Z,2.23
2023-02-13T01:29:10.074Z,2.22
2023-02-13T01:30:10.315Z,2.15
2023-02-13T01:31:11.240Z,2.14
2023-02-13T01:32:11.234Z,2.12
2023-02-13T01:33:11.320Z,2.19
2023-02-13T01:34:11.802Z,2.19
2023-02-13T01:35:12.024Z,2.22
2023-02-13T01:36:13.061Z,2.21
2023-02-13T01:37:13.989Z,2.1
2023-02-13T01:38:13.907Z,2.08
2023-02-13T01:39:14.443Z,2.16
2023-02-13T01:40:14.940Z,2.25
2023-02-13T01:41:15.968Z,2.22
2023-02-13T01:42:16.518Z,2.26
2023-02-13T01:43:17.211Z,2.28
2023-02-13T01:44:17.744Z,2.23
2023-02-13T01:45:17.425Z,2.23
2023-02-13T01:46:19.264Z,2.23
2023-02-13T01:47:19.177Z,2.22
2023-02-13T01:48:19.385Z,2.25
2023-02-13T01:49:19.395Z,2.21
2023-02-13T01:50:20.651Z,2.25
2023-02-13T01:51:21.847Z,2.12
2023-02-13T01:52:22.485Z,2.1
2023-02-13T01:53:23.098Z,2.14
2023-02-13T01:54:24.055Z,2.15
2023-02-13T01:55:24.976Z,2.15
2023-02-13T01:56:26.046Z,2.19
2023-02-13T01:57:26.678Z,2.23
2023-02-13T01:58:27.414Z,2.25
2023-02-13T01:59:27.394Z,2.26
2023-02-13T02:00:28.651Z,2.3
2023-02-13T02:01:29.332Z,2.28
2023-02-13T02:02:29.961Z,2.34
2023-02-13T02:03:30.065Z,2.4
2023-02-13T02:04:31.020Z,2.39
2023-02-13T02:05:31.522Z,2.36
2023-02-13T02:06:31.578Z,2.37
2023-02-13T02:07:32.582Z,2.34
2023-02-13T02:08:32.773Z,2.43
2023-02-13T02:09:32.970Z,2.4
2023-02-13T02:10:33.601Z,2.44
2023-02-13T02:11:33.790Z,2.43
2023-02-13T02:12:34.455Z,2.36
2023-02-13T02:13:34.911Z,2.4
2023-02-13T02:14:35.145Z,2.36
2023-02-13T02:15:35.702Z,2.3
2023-02-13T02:16:36.198Z,2.43
2023-02-13T02:17:36.099Z,2.37
2023-02-13T02:18:37.025Z,2.36
2023-02-13T02:19:37.664Z,2.26
2023-02-13T02:20:38.869Z,2.32
2023-02-13T02:21:39.792Z,2.25
2023-02-13T02:22:40.022Z,2.36
2023-02-13T02:23:40.857Z,2.39
2023-02-13T02:24:41.508Z,2.34
2023-02-13T02:25:42.755Z,2.23
2023-02-13T02:26:43.809Z,2.3
2023-02-13T02:27:44.434Z,2.28
2023-02-13T02:28:45.686Z,2.3
2023-02-13T02:29:45.962Z,2.33
2023-02-13T02:30:46.330Z,2.34
2023-02-13T02:31:46.640Z,2.36
2023-02-13T02:32:47.002Z,2.23
2023-02-13T02:33:47.186Z,2.12
2023-02-13T02:34:48.095Z,2.12
2023-02-13T02:35:48.318Z,2.05
2023-02-13T02:36:48.621Z,2.08
2023-02-13T02:37:49.130Z,1.95
2023-02-13T02:38:49.042Z,1.93
2023-02-13T02:39:50.253Z,1.98
2023-02-13T02:40:50.439Z,1.93
2023-02-13T02:41:51.091Z,1.98
2023-02-13T02:42:51.601Z,1.98
2023-02-13T02:43:52.246Z,1.92
2023-02-13T02:44:52.782Z,1.93
2023-02-13T02:45:53.014Z,1.97
2023-02-13T02:46:53.236Z,1.95
2023-02-13T02:47:53.628Z,2.01
2023-02-13T02:48:53.834Z,2.03
2023-02-13T02:49:54.477Z,1.95
2023-02-13T02:50:55.703Z,2
2023-02-13T02:51:55.713Z,1.98
2023-02-13T02:52:56.363Z,1.98
2023-02-13T02:53:57.611Z,2.07
2023-02-13T02:54:57.507Z,2.01
2023-02-13T02:55:58.280Z,2.08
2023-02-13T02:56:58.866Z,2.04
2023-02-13T02:57:59.061Z,2.14
2023-02-13T02:59:00.500Z,2.08
2023-02-13T03:00:01.083Z,2.16
2023-02-13T03:01:02.048Z,2.12
2023-02-13T03:02:01.463Z,2.16
2023-02-13T03:03:02.380Z,2.15
2023-02-13T03:04:02.964Z,2.14
2023-02-13T03:05:03.380Z,2.18
2023-02-13T03:06:04.024Z,2.12
2023-02-13T03:07:05.075Z,2.23
2023-02-13T03:08:05.977Z,2.25
2023-02-13T03:09:06.338Z,2.19
2023-02-13T03:10:07.275Z,2.26
2023-02-13T03:11:07.481Z,2.21
2023-02-13T03:12:08.677Z,2.21
2023-02-13T03:13:08.647Z,2.3
2023-02-13T03:14:09.345Z,2.21
2023-02-13T03:15:09.654Z,2.25
2023-02-13T03:16:11.021Z,2.22
2023-02-13T03:17:10.585Z,2.22
2023-02-13T03:18:11.263Z,2.23
2023-02-13T03:19:12.464Z,2.28
2023-02-13T03:20:12.955Z,2.22
2023-02-13T03:21:13.160Z,2.23
2023-02-13T03:22:13.770Z,2.25
2023-02-13T03:23:14.415Z,2.23
2023-02-13T03:24:15.617Z,2.23
2023-02-13T03:25:15.828Z,2.26
2023-02-13T03:26:16.265Z,2.18
2023-02-13T03:27:16.324Z,2.22
2023-02-13T03:28:18.696Z,2.28
2023-02-13T03:29:18.228Z,2.23
2023-02-13T03:30:18.760Z,2.28
2023-02-13T03:31:19.400Z,2.23
2023-02-13T03:32:19.675Z,2.16
2023-02-13T03:33:20.025Z,2.15
2023-02-13T03:34:21.015Z,2.16
2023-02-13T03:35:21.220Z,2.18
2023-02-13T03:36:21.418Z,2.04
2023-02-13T03:37:21.843Z,1.95
2023-02-13T03:38:23.066Z,1.97
2023-02-13T03:39:23.265Z,1.93
2023-02-13T03:40:23.464Z,1.89
2023-02-13T03:41:24.381Z,1.86
2023-02-13T03:42:24.587Z,1.85
2023-02-13T03:43:25.947Z,1.84
2023-02-13T03:44:26.188Z,1.86
2023-02-13T03:45:26.436Z,1.95
2023-02-13T03:46:26.573Z,1.89
2023-02-13T03:47:27.662Z,1.98
2023-02-13T03:48:27.878Z,1.97
2023-02-13T03:49:27.811Z,1.92
2023-02-13T03:50:28.444Z,1.98
2023-02-13T03:51:29.657Z,1.97
2023-02-13T03:52:30.009Z,1.97
2023-02-13T03:53:30.024Z,1.95
2023-02-13T03:54:30.952Z,1.92
2023-02-13T03:55:31.315Z,1.95
2023-02-13T03:56:32.527Z,1.95
2023-02-13T03:57:33.528Z,2.04
2023-02-13T03:58:33.443Z,1.97
2023-02-13T03:59:34.713Z,1.92
2023-02-13T04:00:35.086Z,2.03
2023-02-13T04:01:35.666Z,2.08
2023-02-13T04:02:35.522Z,2.07
2023-02-13T04:03:36.034Z,2.07
2023-02-13T04:04:36.956Z,2.15
2023-02-13T04:05:37.148Z,2.07
2023-02-13T04:06:37.356Z,2.07
2023-02-13T04:07:38.287Z,2.21
2023-02-13T04:08:38.928Z,2.16
2023-02-13T04:09:39.168Z,2.1
2023-02-13T04:10:39.661Z,2.26
2023-02-13T04:11:40.570Z,2.22
2023-02-13T04:12:40.871Z,2.25
2023-02-13T04:13:40.790Z,2.22
2023-02-13T04:14:42.229Z,2.28
2023-02-13T04:15:42.756Z,2.22
2023-02-13T04:16:42.526Z,2.22
2023-02-13T04:17:43.466Z,2.25
2023-02-13T04:18:44.103Z,2.12
2023-02-13T04:19:44.850Z,2.15
2023-02-13T04:20:45.412Z,2.16
2023-02-13T04:21:45.736Z,2.08
2023-02-13T04:22:46.942Z,2.15
2023-02-13T04:23:47.867Z,2.16
2023-02-13T04:24:48.175Z,2.14
2023-02-13T04:25:48.102Z,1.97
2023-02-13T04:26:48.731Z,2.05
2023-02-13T04:27:49.489Z,2.14
2023-02-13T04:28:50.757Z,2.04
2023-02-13T04:29:51.290Z,2.12
2023-02-13T04:30:52.142Z,2
2023-02-13T04:31:52.844Z,2.08
2023-02-13T04:32:52.552Z,2.12
2023-02-13T04:33:52.774Z,2.05
2023-02-13T04:34:53.399Z,2.07
2023-02-13T04:35:54.606Z,1.98
2023-02-13T04:36:54.869Z,2
2023-02-13T04:37:55.560Z,1.98
2023-02-13T04:38:56.572Z,2.01
2023-02-13T04:39:56.896Z,1.97
2023-02-13T04:40:57.567Z,1.95
2023-02-13T04:41:57.624Z,2.03
2023-02-13T04:42:58.175Z,2
2023-02-13T04:43:58.412Z,2.01
2023-02-13T04:44:59.416Z,1.95
2023-02-13T04:45:59.752Z,1.88
2023-02-13T04:47:00.305Z,1.84
2023-02-13T04:48:00.927Z,1.81
2023-02-13T04:49:01.604Z,1.76
2023-02-13T04:50:01.562Z,1.81
2023-02-13T04:51:02.948Z,1.82
2023-02-13T04:52:03.447Z,1.88
2023-02-13T04:53:03.961Z,1.86
2023-02-13T04:54:03.882Z,1.93
2023-02-13T04:55:04.523Z,1.88
2023-02-13T04:56:05.750Z,1.97
2023-02-13T04:57:05.949Z,1.98
2023-02-13T04:58:06.941Z,1.97
2023-02-13T04:59:07.279Z,2.04
2023-02-13T05:00:07.710Z,2.01
2023-02-13T05:01:08.444Z,2.16
2023-02-13T05:02:08.488Z,2.12
2023-02-13T05:03:09.183Z,2.14
2023-02-13T05:04:09.700Z,2.16
2023-02-13T05:05:10.723Z,2.12
2023-02-13T05:06:11.043Z,2.08
2023-02-13T05:07:11.404Z,2.14
2023-02-13T05:08:12.771Z,2.22
2023-02-13T05:09:12.706Z,2.21
2023-02-13T05:10:12.633Z,2.19
2023-02-13T05:11:13.274Z,2.25
2023-02-13T05:12:14.955Z,2.19
2023-02-13T05:13:14.583Z,2.19
2023-02-13T05:14:15.800Z,2.22
2023-02-13T05:15:16.339Z,2.22
2023-02-13T05:16:16.775Z,2.12
2023-02-13T05:17:17.451Z,2.18
2023-02-13T05:18:17.305Z,2.14
2023-02-13T05:19:18.218Z,2.01
2023-02-13T05:20:18.508Z,2
2023-02-13T05:21:19.155Z,2
2023-02-13T05:22:19.774Z,1.95
2023-02-13T05:23:20.743Z,1.95
2023-02-13T05:24:21.322Z,1.88
2023-02-13T05:25:21.959Z,1.89
2023-02-13T05:26:22.247Z,1.88
2023-02-13T05:27:22.736Z,1.89
2023-02-13T05:28:23.017Z,1.88
2023-02-13T05:29:23.816Z,1.95
2023-02-13T05:30:24.788Z,1.93
2023-02-13T05:31:25.433Z,1.93
2023-02-13T05:32:26.445Z,1.89
2023-02-13T05:33:26.378Z,1.95
2023-02-13T05:34:27.317Z,1.98
2023-02-13T05:35:28.220Z,1.97
2023-02-13T05:36:28.869Z,2.03
2023-02-13T05:37:29.779Z,1.89
2023-02-13T05:38:29.793Z,1.88
2023-02-13T05:39:30.726Z,1.85
2023-02-13T05:40:31.923Z,1.92
2023-02-13T05:41:32.271Z,2.01
2023-02-13T05:42:33.177Z,1.93
2023-02-13T05:43:34.413Z,1.95
2023-02-13T05:44:34.658Z,1.97
2023-02-13T05:45:35.913Z,1.93
2023-02-13T05:46:36.399Z,1.92
2023-02-13T05:47:36.444Z,1.85
2023-02-13T05:48:37.115Z,1.89
2023-02-13T05:49:37.036Z,1.86
2023-02-13T05:50:37.248Z,1.84
2023-02-13T05:51:37.741Z,1.84
2023-02-13T05:52:37.378Z,1.84
2023-02-13T05:53:38.714Z,1.89
2023-02-13T05:54:39.195Z,1.79
2023-02-13T05:55:39.415Z,1.78
2023-02-13T05:56:39.334Z,1.79
2023-02-13T05:57:40.833Z,1.74
2023-02-13T05:58:39.999Z,1.82
2023-02-13T05:59:40.932Z,1.79
2023-02-13T06:00:42.114Z,1.79
2023-02-13T06:01:42.650Z,1.81
2023-02-13T06:02:43.480Z,1.74
2023-02-13T06:03:44.387Z,1.75
2023-02-13T06:04:45.029Z,1.7
2023-02-13T06:05:45.240Z,1.56
2023-02-13T06:06:45.880Z,1.6
2023-02-13T06:07:47.094Z,1.53
2023-02-13T06:08:47.874Z,1.53
2023-02-13T06:09:48.811Z,1.52
2023-02-13T06:10:50.954Z,1.6
2023-02-13T06:11:50.419Z,1.52
2023-02-13T06:12:50.636Z,1.56
2023-02-13T06:13:51.552Z,1.66
2023-02-13T06:14:51.912Z,1.68
2023-02-13T06:15:53.355Z,1.7
2023-02-13T06:16:54.083Z,1.7
2023-02-13T06:17:54.749Z,1.66
2023-02-13T06:18:55.489Z,1.7
2023-02-13T06:19:56.015Z,1.66
2023-02-13T06:20:56.592Z,1.74
2023-02-13T06:21:56.924Z,1.74
2023-02-13T06:22:56.855Z,1.81
2023-02-13T06:23:57.797Z,1.82
2023-02-13T06:24:59.011Z,1.79
2023-02-13T06:25:59.206Z,1.75
2023-02-13T06:26:59.837Z,1.81
2023-02-13T06:28:00.587Z,1.78
2023-02-13T06:29:00.933Z,1.79
2023-02-13T06:30:02.043Z,1.71
2023-02-13T06:31:03.713Z,1.81
2023-02-13T06:32:03.462Z,1.71
2023-02-13T06:33:04.420Z,1.71
2023-02-13T06:34:04.637Z,1.78
2023-02-13T06:35:06.246Z,1.78
2023-02-13T06:36:05.452Z,1.74
2023-02-13T06:37:06.685Z,1.81
2023-02-13T06:38:06.610Z,1.74
2023-02-13T06:39:07.662Z,1.85
2023-02-13T06:40:07.932Z,1.81
2023-02-13T06:41:09.233Z,1.78
2023-02-13T06:42:09.633Z,1.78
2023-02-13T06:43:10.551Z,1.75
2023-02-13T06:44:10.479Z,1.92
2023-02-13T06:45:11.670Z,1.75
2023-02-13T06:46:11.993Z,1.82
2023-02-13T06:47:12.343Z,1.82
2023-02-13T06:48:12.857Z,1.78
2023-02-13T06:49:12.900Z,1.78
2023-02-13T06:50:13.866Z,1.64
2023-02-13T06:51:14.856Z,1.67
2023-02-13T06:52:15.086Z,1.63
2023-02-13T06:53:16.028Z,1.61
2023-02-13T06:54:16.232Z,1.6
2023-02-13T06:55:17.235Z,1.56
2023-02-13T06:56:17.453Z,1.58
2023-02-13T06:57:18.381Z,1.5
2023-02-13T06:58:18.872Z,1.48
2023-02-13T06:59:19.589Z,1.6
2023-02-13T07:00:20.525Z,1.53
2023-02-13T07:01:21.558Z,1.57
2023-02-13T07:02:22.381Z,1.63
2023-02-13T07:03:22.546Z,1.52
2023-02-13T07:04:23.762Z,1.53
2023-02-13T07:05:24.755Z,1.6
2023-02-13T07:06:25.124Z,1.56
2023-02-13T07:07:25.343Z,1.58
2023-02-13T07:08:26.294Z,1.6
2023-02-13T07:09:26.725Z,1.6
2023-02-13T07:10:27.221Z,1.67
2023-02-13T07:11:27.211Z,1.64
2023-02-13T07:12:28.130Z,1.64
2023-02-13T07:13:29.056Z,1.63
2023-02-13T07:14:29.263Z,1.7
2023-02-13T07:15:29.637Z,1.74
2023-02-13T07:16:30.988Z,1.68
2023-02-13T07:17:31.598Z,1.71
2023-02-13T07:18:31.851Z,1.71
2023-02-13T07:19:32.418Z,1.64
2023-02-13T07:20:32.073Z,1.58
2023-02-13T07:21:33.590Z,1.57
2023-02-13T07:22:33.831Z,1.52
2023-02-13T07:23:34.750Z,1.68
2023-02-13T07:24:34.967Z,1.67
2023-02-13T07:25:34.612Z,1.58
2023-02-13T07:26:35.743Z,1.67
2023-02-13T07:27:36.082Z,1.64
2023-02-13T07:28:37.445Z,1.7
2023-02-13T07:29:37.293Z,1.66
2023-02-13T07:30:38.371Z,1.64
2023-02-13T07:31:38.551Z,1.64
2023-02-13T07:32:39.034Z,1.63
2023-02-13T07:33:39.317Z,1.68
2023-02-13T07:34:59.750Z,1.71
2023-02-13T07:35:40.447Z,1.71
2023-02-13T07:36:41.102Z,1.68
2023-02-13T07:37:42.025Z,1.71
2023-02-13T07:38:43.238Z,1.74
2023-02-13T07:39:44.230Z,1.79
2023-02-13T07:40:43.887Z,1.76
2023-02-13T07:41:44.840Z,1.75
2023-02-13T07:42:44.938Z,1.84
2023-02-13T07:43:45.872Z,1.88
2023-02-13T07:44:46.808Z,1.86
2023-02-13T07:45:47.752Z,2.01
2023-02-13T07:46:48.186Z,2.03
2023-02-13T07:47:48.653Z,2.04
2023-02-13T07:48:48.695Z,2.04
2023-02-13T07:49:49.512Z,2.07
2023-02-13T07:51:03.621Z,2.08
2023-02-13T07:51:51.571Z,2.07
2023-02-13T07:52:51.770Z,2.07
2023-02-13T07:53:52.185Z,2.18
2023-02-13T07:54:53.817Z,2.16
2023-02-13T07:55:53.769Z,2.22
2023-02-13T07:56:54.303Z,2.15
2023-02-13T07:57:55.523Z,2.14
2023-02-13T07:58:55.730Z,2.05
2023-02-13T07:59:56.105Z,2
2023-02-13T08:00:57.046Z,2.01
2023-02-13T08:01:58.093Z,2.01
2023-02-13T08:02:58.615Z,1.92
2023-02-13T08:03:58.744Z,1.95
2023-02-13T08:04:59.245Z,1.86
2023-02-13T08:05:59.965Z,1.88
2023-02-13T08:06:59.685Z,1.79
2023-02-13T08:08:00.895Z,1.76
2023-02-13T08:09:01.833Z,1.78
2023-02-13T08:10:02.922Z,1.75
2023-02-13T08:11:02.873Z,1.74
2023-02-13T08:12:04.390Z,1.88
2023-02-13T08:13:04.892Z,1.81
2023-02-13T08:14:05.420Z,1.79
2023-02-13T08:15:05.672Z,1.86
2023-02-13T08:16:06.879Z,1.76
2023-02-13T08:17:06.743Z,1.81
2023-02-13T08:18:07.028Z,1.76
2023-02-13T08:19:07.538Z,1.78
2023-02-13T08:20:08.018Z,1.76
2023-02-13T08:21:08.666Z,1.68
2023-02-13T08:22:09.572Z,1.68
2023-02-13T08:23:10.243Z,1.79
2023-02-13T08:24:10.902Z,1.79
2023-02-13T08:25:11.553Z,1.81
2023-02-13T08:26:12.671Z,1.78
2023-02-13T08:27:13.243Z,1.79
2023-02-13T08:28:13.725Z,1.74
2023-02-13T08:29:14.103Z,1.81
2023-02-13T08:30:14.475Z,1.79
2023-02-13T08:31:17.985Z,1.81
2023-02-13T08:32:16.277Z,1.79
2023-02-13T08:33:16.760Z,1.74
2023-02-13T08:34:16.797Z,1.81
2023-02-13T08:35:17.821Z,1.81
2023-02-13T08:36:18.830Z,1.84
2023-02-13T08:37:19.764Z,1.92
2023-02-13T08:38:19.986Z,1.95
2023-02-13T08:39:20.617Z,1.92
2023-02-13T08:40:22.753Z,2.07
2023-02-13T08:41:24.392Z,2.05
2023-02-13T08:42:22.517Z,2.05
2023-02-13T08:43:23.014Z,2.05
2023-02-13T08:44:23.692Z,2.1
2023-02-13T08:45:23.622Z,2.16
2023-02-13T08:46:24.626Z,2.07
2023-02-13T08:47:25.226Z,2.16
2023-02-13T08:48:25.789Z,2.22
2023-02-13T08:49:26.024Z,2.18
2023-02-13T08:50:26.368Z,2.25
2023-02-13T08:51:27.186Z,2.26
2023-02-13T08:52:27.676Z,2.32
2023-02-13T08:53:28.174Z,2.34
2023-02-13T08:54:28.767Z,2.32
2023-02-13T08:55:29.024Z,2.4
2023-02-13T08:56:29.307Z,2.34
2023-02-13T08:57:29.963Z,2.34
2023-02-13T08:58:30.471Z,2.4
2023-02-13T08:59:31.119Z,2.4
2023-02-13T09:00:31.906Z,2.44
2023-02-13T09:01:33.707Z,2.43
2023-02-13T09:02:34.026Z,2.37
2023-02-13T09:03:34.759Z,2.37
2023-02-13T09:04:35.347Z,2.39
2023-02-13T09:05:35.300Z,2.44
2023-02-13T09:06:36.563Z,2.46
2023-02-13T09:07:36.903Z,2.46
2023-02-13T09:08:37.413Z,2.46
2023-02-13T09:09:37.662Z,2.54
2023-02-13T09:10:38.034Z,2.57
2023-02-13T09:11:38.940Z,2.68
2023-02-13T09:12:39.150Z,2.58
2023-02-13T09:13:40.085Z,2.69
2023-02-13T09:14:40.724Z,2.64
2023-02-13T09:15:41.661Z,2.64
2023-02-13T09:16:41.766Z,2.68
2023-02-13T09:17:43.122Z,2.77
2023-02-13T09:18:43.670Z,2.79
2023-02-13T09:19:44.183Z,2.87
2023-02-13T09:20:44.925Z,2.83
2023-02-13T09:21:45.562Z,2.87
2023-02-13T09:22:46.777Z,2.94
2023-02-13T09:23:47.053Z,3.08
2023-02-13T09:24:47.686Z,3.18
2023-02-13T09:25:48.623Z,3.12
2023-02-13T09:26:49.443Z,3.13
2023-02-13T09:27:50.209Z,3.09
2023-02-13T09:28:50.886Z,3.01
2023-02-13T09:29:51.840Z,3
2023-02-13T09:30:53.001Z,2.95
2023-02-13T09:31:53.522Z,2.98
2023-02-13T09:32:53.772Z,3.09
2023-02-13T09:33:54.327Z,3.09
2023-02-13T09:34:54.572Z,3.24
2023-02-13T09:35:54.896Z,3.21
2023-02-13T09:36:54.553Z,3.21
2023-02-13T09:37:55.784Z,3.31
2023-02-13T09:38:55.769Z,3.3
2023-02-13T09:39:56.296Z,3.45
2023-02-13T09:40:56.600Z,3.36
2023-02-13T09:41:56.991Z,3.41
2023-02-13T09:42:56.969Z,3.4
2023-02-13T09:43:57.353Z,3.48
2023-02-13T09:44:57.951Z,3.46
2023-02-13T09:45:59.454Z,3.49
2023-02-13T09:46:59.168Z,3.59
2023-02-13T09:48:00.273Z,3.7
2023-02-13T09:49:00.274Z,3.74
2023-02-13T09:50:01.258Z,3.68
2023-02-13T09:51:01.640Z,3.76
2023-02-13T09:52:02.191Z,3.68
2023-02-13T09:53:02.396Z,3.67
2023-02-13T09:54:03.644Z,3.67
2023-02-13T09:55:03.893Z,3.78
2023-02-13T09:56:04.560Z,3.78
2023-02-13T09:57:05.082Z,3.88
2023-02-13T09:58:05.322Z,3.99
2023-02-13T09:59:05.551Z,3.96
2023-02-13T10:00:05.766Z,3.88
2023-02-13T10:01:06.941Z,3.96
2023-02-13T10:02:07.708Z,3.96
2023-02-13T10:03:07.722Z,4.16
2023-02-13T10:04:08.698Z,4.27
2023-02-13T10:05:09.342Z,4.57
2023-02-13T10:06:09.276Z,4.66
2023-02-13T10:07:09.774Z,4.75
2023-02-13T10:08:10.008Z,4.79
2023-02-13T10:09:11.047Z,4.82
2023-02-13T10:10:11.810Z,4.82
2023-02-13T10:11:11.744Z,4.86
2023-02-13T10:12:12.549Z,5
2023-02-13T10:13:13.252Z,5.13
2023-02-13T10:14:13.843Z,5.2
2023-02-13T10:15:14.827Z,5.36
2023-02-13T10:16:16.109Z,5.43
2023-02-13T10:17:16.294Z,5.44
2023-02-13T10:18:17.580Z,5.41
2023-02-13T10:19:17.841Z,5.46
2023-02-13T10:20:18.088Z,5.54
2023-02-13T10:21:19.121Z,5.52
2023-02-13T10:22:20.066Z,5.61
2023-02-13T10:23:20.998Z,5.7
2023-02-13T10:24:22.227Z,5.8
2023-02-13T10:25:22.157Z,5.76
2023-02-13T10:26:24.987Z,5.81
2023-02-13T10:27:23.320Z,5.91
2023-02-13T10:28:24.358Z,6.02
2023-02-13T10:29:24.759Z,6.12
2023-02-13T10:30:24.824Z,6.32
2023-02-13T10:31:26.167Z,6.29
2023-02-13T10:32:27.098Z,6.35
2023-02-13T10:33:27.185Z,6.43
2023-02-13T10:34:28.474Z,6.34
2023-02-13T10:35:28.720Z,6.32
2023-02-13T10:36:29.981Z,6.46
2023-02-13T10:37:30.720Z,6.54
2023-02-13T10:38:31.017Z,6.62
2023-02-13T10:39:32.299Z,6.72
2023-02-13T10:40:32.559Z,6.8
2023-02-13T10:41:32.734Z,6.89
2023-02-13T10:42:36.580Z,7.14
2023-02-13T10:43:33.840Z,7.15
2023-02-13T10:44:35.064Z,7.15
2023-02-13T10:45:34.999Z,7.18
2023-02-13T10:46:35.781Z,7.29
2023-02-13T10:47:36.431Z,7.43
2023-02-13T10:48:37.290Z,7.58
2023-02-13T10:49:37.697Z,7.64
2023-02-13T10:50:38.252Z,7.66
2023-02-13T10:51:38.637Z,7.87
2023-02-13T10:52:38.588Z,8.05
2023-02-13T10:53:39.816Z,8.09
2023-02-13T10:54:39.761Z,8.35
2023-02-13T10:55:41.080Z,8.61
2023-02-13T10:56:41.634Z,8.97
2023-02-13T10:57:42.169Z,9.08
2023-02-13T10:58:42.481Z,9.37
2023-02-13T10:59:42.204Z,9.63
2023-02-13T11:00:43.871Z,10.09
2023-02-13T11:01:44.555Z,10.23
2023-02-13T11:02:44.794Z,10.48
2023-02-13T11:03:46.279Z,10.72
2023-02-13T11:04:46.979Z,10.92
2023-02-13T11:05:47.231Z,11.01
2023-02-13T11:06:48.342Z,11.07
2023-02-13T11:07:49.386Z,10.95
2023-02-13T11:08:49.508Z,10.83
2023-02-13T11:09:50.735Z,10.8
2023-02-13T11:10:50.793Z,10.64
2023-02-13T11:11:52.032Z,10.72
2023-02-13T11:12:52.336Z,10.77
2023-02-13T11:13:52.689Z,10.82
2023-02-13T11:14:53.077Z,10.77
2023-02-13T11:15:54.404Z,10.71
2023-02-13T11:16:54.517Z,10.34
2023-02-13T11:17:54.898Z,10.09
2023-02-13T11:18:55.508Z,9.84
2023-02-13T11:19:55.488Z,9.73
2023-02-13T11:20:55.820Z,9.44
2023-02-13T11:21:57.121Z,9.34
2023-02-13T11:22:57.627Z,9.27
2023-02-13T11:23:57.277Z,9.3
2023-02-13T11:24:58.740Z,9.18
2023-02-13T11:25:59.879Z,9.03
2023-02-13T11:27:00.336Z,9.05
2023-02-13T11:28:00.767Z,9.11
2023-02-13T11:29:00.961Z,9.09
2023-02-13T11:30:01.635Z,9.22
2023-02-13T11:31:03.265Z,9.13
2023-02-13T11:32:04.068Z,9.27
2023-02-13T11:33:04.012Z,9.12
2023-02-13T11:34:05.283Z,9.09
2023-02-13T11:35:04.535Z,9.02
2023-02-13T11:36:05.223Z,9.08
2023-02-13T11:37:05.464Z,8.82
2023-02-13T11:38:05.967Z,8.75
2023-02-13T11:39:05.946Z,8.66
2023-02-13T11:40:07.168Z,8.61
2023-02-13T11:41:07.086Z,8.84
2023-02-13T11:42:08.401Z,8.78
2023-02-13T11:43:09.364Z,8.86
2023-02-13T11:44:09.369Z,8.74
2023-02-13T11:45:10.385Z,8.68
2023-02-13T11:46:11.079Z,8.56
2023-02-13T11:47:11.572Z,8.5
2023-02-13T11:48:11.596Z,8.46
2023-02-13T11:49:12.022Z,8.2
2023-02-13T11:50:12.710Z,8.16
2023-02-13T11:51:12.417Z,7.96
2023-02-13T11:52:12.907Z,7.88
2023-02-13T11:53:13.852Z,7.87
2023-02-13T11:54:13.776Z,7.88
2023-02-13T11:55:14.999Z,7.9
2023-02-13T11:56:15.944Z,8.06
2023-02-13T11:57:16.481Z,8.14
2023-02-13T11:58:16.997Z,8.17
2023-02-13T11:59:17.186Z,8.13
2023-02-13T12:00:17.395Z,8.06
2023-02-13T12:01:18.184Z,8.03
2023-02-13T12:02:19.099Z,8.06
2023-02-13T12:03:19.480Z,8.13
2023-02-13T12:04:19.831Z,8.13
2023-02-13T12:05:20.130Z,8.13
2023-02-13T12:06:20.672Z,8.11
2023-02-13T12:07:20.693Z,8.2
2023-02-13T12:08:21.909Z,8.39
2023-02-13T12:09:22.161Z,8.53
2023-02-13T12:10:23.436Z,8.59
2023-02-13T12:11:23.984Z,8.71
2023-02-13T12:12:24.656Z,8.63
2023-02-13T12:13:25.218Z,8.72
2023-02-13T12:14:25.424Z,8.77
2023-02-13T12:15:25.958Z,8.79
2023-02-13T12:16:26.807Z,8.93
2023-02-13T12:17:36.857Z,9.12
2023-02-13T12:18:27.962Z,9.31
2023-02-13T12:19:28.256Z,9.48
2023-02-13T12:20:28.836Z,9.76
2023-02-13T12:21:28.556Z,10.07
2023-02-13T12:22:29.590Z,10.25
2023-02-13T12:23:30.032Z,10.45
2023-02-13T12:24:30.601Z,10.57
2023-02-13T12:25:31.815Z,10.48
2023-02-13T12:26:31.769Z,10.46
2023-02-13T12:27:32.727Z,10.28
2023-02-13T12:28:32.545Z,10.15
2023-02-13T12:29:36.101Z,10.13
2023-02-13T12:30:35.040Z,10.02
2023-02-13T12:31:34.784Z,9.9
2023-02-13T12:32:35.637Z,9.92
2023-02-13T12:33:35.865Z,9.99
2023-02-13T12:34:36.430Z,10.03
2023-02-13T12:35:36.998Z,10.02
2023-02-13T12:36:36.964Z,10.13
2023-02-13T12:37:37.893Z,10.12
2023-02-13T12:38:38.815Z,10.13
2023-02-13T12:39:40.036Z,10.24
2023-02-13T12:40:40.548Z,10.42
2023-02-13T12:41:40.494Z,10.64
2023-02-13T12:42:41.199Z,10.69
2023-02-13T12:43:42.421Z,10.83
2023-02-13T12:44:42.671Z,10.9
2023-02-13T12:45:43.014Z,10.89
2023-02-13T12:46:45.651Z,10.89
2023-02-13T12:47:43.283Z,11.02
2023-02-13T12:48:43.949Z,10.97
2023-02-13T12:49:45.249Z,10.89
2023-02-13T12:50:45.523Z,10.98
2023-02-13T12:51:46.240Z,10.92
2023-02-13T12:52:47.337Z,10.95
2023-02-13T12:53:48.269Z,11.07
2023-02-13T12:54:49.234Z,11.16
2023-02-13T12:55:50.165Z,11.2
2023-02-13T12:56:50.241Z,11.2
2023-02-13T12:57:51.183Z,11.16
2023-02-13T12:58:52.137Z,11.15
2023-02-13T12:59:53.087Z,11.07
2023-02-13T13:00:54.678Z,11.16
2023-02-13T13:01:55.489Z,11.15
2023-02-13T13:02:56.400Z,11.13
2023-02-13T13:03:56.470Z,11.16
2023-02-13T13:04:57.468Z,11.2
2023-02-13T13:06:15.146Z,11.3
2023-02-13T13:06:58.777Z,11.26
2023-02-13T13:07:58.445Z,11.22
2023-02-13T13:08:59.709Z,11.2
2023-02-13T13:10:00.259Z,11.34
2023-02-13T13:11:00.970Z,11.26
2023-02-13T13:12:01.291Z,11.37
2023-02-13T13:13:01.717Z,11.44
2023-02-13T13:14:02.238Z,11.41
2023-02-13T13:15:02.186Z,11.51
2023-02-13T13:16:03.400Z,11.51
2023-02-13T13:17:04.260Z,11.65
2023-02-13T13:18:04.229Z,11.81
2023-02-13T13:19:05.153Z,11.8
2023-02-13T13:20:06.446Z,11.78
2023-02-13T13:21:07.023Z,11.76
2023-02-13T13:22:07.553Z,11.73
2023-02-13T13:23:07.604Z,11.76
2023-02-13T13:24:08.341Z,11.85
2023-02-13T13:25:09.286Z,11.73
2023-02-13T13:26:09.536Z,11.71